• Join FlightAware (Why Join?)
  • Login
  • US Flag 
07:05AM EST


 

Airport Tracker/Info


-or-


 

Live Flight TrackerFlight Track Log ✈ AFL150 ✈ 02-Aug-2014 ✈ UUEE / SVO - MUHA / HAV

Flight Track Log - Related Links

Times and Time Zones

All times are in EDT time to prevent confusion due to time zone crossing. See the AFL150 flight status page for this flight to view local times or setup timezone preferences in your user account.

Time Position Orientation Groundspeed Altitude Reporting Facility
EDT Latitude Longitude Course Direction KTS MPH feet Rate Location/Type
06:22AM 56.0845 37.3620 317° Northwest  Level FlightAware Approximate
06:22AM 56.0223 37.7310 48° Northeast 278 320 5,100  Level FlightAware ADS-B (UUWV / MOW)
06:22AM 56.0407 37.7527 28° Northeast 277 319 5,700 2,280 Climbing FlightAware ADS-B (UUWV / MOW)
06:23AM 56.0578 37.7555 355° North 276 318 6,300 2,340 Climbing FlightAware ADS-B (UUWV / MOW)
06:23AM 56.0728 37.7468 325° Northwest 278 320 6,800 2,400 Climbing FlightAware ADS-B (UUWV / MOW)
06:23AM 56.0887 37.7180 298° West 277 319 7,500 2,460 Climbing FlightAware ADS-B (UUWV / MOW)
06:23AM 56.0935 37.6869 276° West 278 320 8,100 2,400 Climbing FlightAware ADS-B (UUWV / MOW)
06:24AM 56.0839 37.6145 251° West 281 323 9,400 2,220 Climbing FlightAware ADS-B (UUWV / MOW)
06:25AM 56.0711 37.5379 257° West 300 345 10,700 1,560 Climbing FlightAware ADS-B (UUWV / MOW)
06:25AM 56.0589 37.4416 258° West 323 372 11,400 1,500 Climbing FlightAware ADS-B (UUWV / MOW)
06:26AM 56.0553 37.3569 273° West 327 376 12,400 2,160 Climbing FlightAware ADS-B (UUWV / MOW)
06:26AM 56.0637 37.2794 285° West 334 384 13,500 1,920 Climbing FlightAware ADS-B (UUWV / MOW)
06:27AM 56.0732 37.1928 276° West 344 396 14,400 1,860 Climbing FlightAware ADS-B (UUWV / MOW)
06:27AM 56.0765 37.0710 278° West 354 407 15,900 1,980 Climbing FlightAware ADS-B (UUWV / MOW)
06:28AM 56.0831 36.9523 272° West 356 410 17,200 1,800 Climbing FlightAware ADS-B (UUWV / MOW)
06:29AM 56.0928 36.7082 276° West 372 428 19,600 1,740 Climbing FlightAware ADS-B (UUWV / MOW)
06:30AM 56.0973 36.6250 276° West 376 433 20,500 1,260 Climbing FlightAware ADS-B (UUWV / MOW)
06:31AM 56.1052 36.4771 275° West 399 459 21,200 540 Climbing FlightAware ADS-B (UUWV / MOW)
06:53AM 56.5156 31.5646 278° West 452 520 34,000 540 Climbing FlightAware ADS-B
06:53AM 56.5257 31.4361 278° West 453 521 34,000  Level FlightAware ADS-B (EVDA / DGP)
06:54AM 56.5361 31.3131 281° West 454 522 34,000  Level FlightAware ADS-B
06:55AM 56.5784 31.0762 294° West 455 524 34,000  Level FlightAware ADS-B
06:56AM 56.6385 30.8890 306° West 456 525 34,000  Level FlightAware ADS-B
06:56AM 56.6759 30.8046 311° West 456 525 34,000  Level FlightAware ADS-B (EVDA / DGP)
06:57AM 56.7355 30.6702 303° West 455 524 34,000  Level FlightAware ADS-B
06:58AM 56.8273 30.4264 304° West 454 522 34,000  Level FlightAware ADS-B (EVDA / DGP)
06:59AM 56.8833 30.2751 304° West 453 521 34,000  Level FlightAware ADS-B (EVDA / DGP)
07:00AM 56.9630 30.0576 304° West 453 521 34,000  Level FlightAware ADS-B (EVDA / DGP)
07:01AM 57.0372 29.8531 304° West 452 520 34,000  Level FlightAware ADS-B (EVDA / DGP)
07:02AM 57.1046 29.6661 303° West 451 519 34,000  Level FlightAware ADS-B (EVDA / DGP)
07:03AM 57.1737 29.4726 303° West 451 519 34,000  Level FlightAware ADS-B (EVDA / DGP)
07:04AM 57.2401 29.2851 303° West 448 516 34,000  Level FlightAware ADS-B (EVDA / DGP)
07:05AM 57.3089 29.0899 303° West 448 516 34,000  Level FlightAware ADS-B (EVDA / DGP)
07:06AM 57.3735 28.9049 303° West 449 517 34,000  Level FlightAware ADS-B (EVDA / DGP)
07:07AM 57.4408 28.7111 303° West 447 514 34,000  Level FlightAware ADS-B (EVDA / DGP)
07:08AM 57.5106 28.5080 303° West 446 513 34,000  Level FlightAware ADS-B (EVDA / DGP)
07:09AM 57.5766 28.3145 302° West 446 513 34,000  Level FlightAware ADS-B (EVDA / DGP)
07:11AM 57.6182 28.1915 302° West 445 512 34,000  Level FlightAware ADS-B
07:12AM 57.7403 27.8277 302° West 444 511 34,000  Level FlightAware ADS-B
07:13AM 57.7902 27.6777 302° West 445 512 34,000  Level FlightAware ADS-B (EVDA / DGP)
07:14AM 57.8479 27.4786 290° West 443 510 34,000  Level FlightAware ADS-B (EVDA / DGP)
07:15AM 57.8914 27.2606 291° West 445 512 34,000  Level FlightAware ADS-B (EVDA / DGP)
07:15AM 57.9160 27.1385 291° West 445 512 34,000  Level FlightAware ADS-B
07:16AM 57.9395 27.0216 291° West 444 511 34,000  Level FlightAware ADS-B (EVDA / DGP)
07:16AM 57.9681 26.8780 291° West 443 510 34,000  Level FlightAware ADS-B
07:18AM 58.0210 26.6099 290° West 442 509 34,000  Level FlightAware ADS-B
07:19AM 58.0644 26.3870 290° West 443 510 34,000  Level FlightAware ADS-B
07:20AM 58.1065 26.1685 290° West 444 511 34,000  Level FlightAware ADS-B
07:21AM 58.1432 25.9767 290° West 443 510 34,000  Level FlightAware ADS-B
07:21AM 58.1682 25.8447 290° West 443 510 34,000  Level FlightAware ADS-B
07:22AM 58.1889 25.7346 290° West 443 510 34,000  Level FlightAware ADS-B
07:22AM 58.2098 25.6228 289° West 442 509 34,000  Level FlightAware ADS-B
07:23AM 58.2439 25.4388 289° West 441 507 34,000  Level FlightAware ADS-B (EVDA / DGP)
07:24AM 58.2794 25.2457 289° West 439 505 34,000  Level FlightAware ADS-B
07:24AM 58.2935 25.1683 289° West 438 504 34,000  Level FlightAware ADS-B (EFHN)
07:25AM 58.3239 25.0004 289° West 438 504 34,000  Level FlightAware ADS-B
07:25AM 58.3378 24.9230 289° West 436 502 34,000  Level FlightAware ADS-B (EFHN)
07:26AM 58.3693 24.7463 289° West 436 502 34,000  Level FlightAware ADS-B (EFHN)
07:27AM 58.3933 24.6109 289° West 436 502 34,000  Level FlightAware ADS-B
07:27AM 58.4109 24.5111 289° West 435 501 34,000  Level FlightAware ADS-B
07:28AM 58.4536 24.2385 286° West 434 499 34,000  Level FlightAware ADS-B (EFHN)
07:29AM 58.4742 24.0998 286° West 435 501 34,000  Level FlightAware ADS-B
07:30AM 58.4748 24.0959 286° West 436 502 34,000  Level FlightAware ADS-B
07:31AM 58.4865 24.0181 286° West 436 502 34,000  Level FlightAware ADS-B (EFHN)
07:34AM 58.5900 23.3122 285° West 433 498 34,000  Level FlightAware ADS-B (EFHN)
07:35AM 58.6563 22.8435 285° West 432 497 34,000  Level FlightAware ADS-B (EFHN)
07:35AM 58.6789 22.6805 285° West 432 497 34,000  Level FlightAware ADS-B (EFHN)
07:36AM 58.6993 22.5312 285° West 433 498 34,000  Level FlightAware ADS-B (EFHN)
07:37AM 58.7167 22.4035 285° West 434 499 34,000  Level FlightAware ADS-B (EFHN)
07:37AM 58.7379 22.2453 285° West 435 501 34,000  Level FlightAware ADS-B (EFHN)
07:38AM 58.7578 22.0959 284° West 436 502 34,000  Level FlightAware ADS-B (EFHN)
07:39AM 58.7798 21.9295 284° West 436 502 34,000  Level FlightAware ADS-B (EFHN)
07:39AM 58.7942 21.8196 284° West 436 502 34,000  Level FlightAware ADS-B (EFHN)
07:40AM 58.8048 21.7378 284° West 437 503 34,000  Level FlightAware ADS-B (ESKB)
07:41AM 58.8369 21.4875 284° West 439 505 34,000  Level FlightAware ADS-B (ESKB)
07:41AM 58.8416 21.4503 284° West 439 505 34,000  Level FlightAware ADS-B (ESKB)
07:43AM 58.8905 21.0605 285° West 440 506 34,000  Level FlightAware ADS-B (ESKB)
07:44AM 58.9390 20.7631 287° West 439 505 34,000  Level FlightAware ADS-B
07:44AM 58.9457 20.7230 287° West 439 505 34,000  Level FlightAware ADS-B
07:45AM 58.9731 20.5573 288° West 441 507 34,000  Level FlightAware ADS-B (ESKB)
07:45AM 58.9958 20.4181 287° West 440 506 34,000  Level FlightAware ADS-B
07:46AM 59.0206 20.2645 287° West 441 507 34,000  Level FlightAware ADS-B (ESKB)
07:47AM 59.0415 20.1343 287° West 443 510 34,000  Level FlightAware ADS-B
07:47AM 59.0588 20.0259 287° West 444 511 34,000  Level FlightAware ADS-B (ESKB)
07:48AM 59.0791 19.8976 287° West 447 514 34,000  Level FlightAware ADS-B (ESKB)
07:49AM 59.1080 19.7135 287° West 448 516 34,000  Level FlightAware ADS-B (ESKB)
07:49AM 59.1317 19.5607 287° West 449 517 34,000  Level FlightAware ADS-B
07:50AM 59.1573 19.3943 287° West 450 518 34,000  Level FlightAware ADS-B (ESKB)
07:51AM 59.1778 19.2605 286° West 450 518 34,000  Level FlightAware ADS-B (ESKB)
07:51AM 59.2026 19.0962 286° West 451 519 34,000  Level FlightAware ADS-B
07:52AM 59.2277 18.9286 286° West 452 520 34,000  Level FlightAware ADS-B (ESKB)
07:52AM 59.2463 18.8027 285° West 451 519 34,000  Level FlightAware ADS-B
07:53AM 59.2615 18.6998 286° West 454 522 34,000  Level FlightAware ADS-B (ESKB)
07:53AM 59.2811 18.5655 285° West 452 520 34,000  Level FlightAware ADS-B
07:54AM 59.2976 18.4513 285° West 452 520 34,000  Level FlightAware ADS-B
07:54AM 59.3150 18.3309 285° West 453 521 34,000  Level FlightAware ADS-B
07:55AM 59.3302 18.2247 286° West 455 524 34,000  Level FlightAware ADS-B (ESKB)
07:55AM 59.3495 18.0890 285° West 452 520 34,000  Level FlightAware ADS-B
07:56AM 59.3649 17.9793 285° West 453 521 34,000  Level FlightAware ADS-B (ESKB)
07:57AM 59.3889 17.8074 285° West 454 522 34,000  Level FlightAware ADS-B (ESKB)
07:57AM 59.4071 17.6755 285° West 454 522 34,000  Level FlightAware ADS-B
07:58AM 59.4234 17.5562 285° West 455 524 34,000  Level FlightAware ADS-B (ESKB)
07:58AM 59.4462 17.3897 285° West 456 525 34,000  Level FlightAware ADS-B (ESKB)
07:59AM 59.4678 17.2288 285° West 458 527 34,000  Level FlightAware ADS-B (ESKB)
08:00AM 59.4883 17.0755 285° West 459 528 34,000  Level FlightAware ADS-B
08:00AM 59.5119 16.8957 285° West 460 529 34,000  Level FlightAware ADS-B
08:01AM 59.5349 16.7198 284° West 459 528 34,000  Level FlightAware ADS-B (ESKB)
08:02AM 59.5560 16.5561 284° West 458 527 34,000  Level FlightAware ADS-B (ESKB)
08:02AM 59.5747 16.4088 283° West 457 526 34,000  Level FlightAware ADS-B
08:03AM 59.5976 16.2273 283° West 458 527 34,000  Level FlightAware ADS-B
08:04AM 59.6130 16.1035 283° West 458 527 34,000  Level FlightAware ADS-B
08:04AM 59.6267 15.9927 284° West 459 528 34,000 300 Level FlightAware ADS-B (ESKB)
08:05AM 59.6467 15.8287 283° West 461 531 34,400 780 Climbing FlightAware ADS-B (ESKB)
08:05AM 59.6648 15.6795 283° West 457 526 35,000 960 Climbing FlightAware ADS-B
08:06AM 59.6808 15.5579 287° West 458 527 35,400 720 Climbing FlightAware ADS-B
08:07AM 59.7116 15.3814 289° West 462 532 35,900 360 Climbing FlightAware ADS-B
08:07AM 59.7423 15.1957 287° West 464 534 36,000 60 Climbing FlightAware ADS-B
08:08AM 59.7711 15.0161 287° West 462 532 36,000  Level FlightAware ADS-B
08:09AM 59.7910 14.8908 287° West 462 532 36,000  Level FlightAware ADS-B
08:09AM 59.8191 14.7114 286° West 460 529 36,000  Level FlightAware ADS-B
08:10AM 59.8384 14.5883 286° West 459 528 36,000  Level FlightAware ADS-B
08:11AM 59.8653 14.4134 287° West 460 529 36,000  Level FlightAware ADS-B
08:11AM 59.8849 14.2855 287° West 460 529 36,000  Level FlightAware ADS-B
08:12AM 59.9034 14.1642 287° West 459 528 36,000  Level FlightAware ADS-B
08:12AM 59.9217 14.0428 287° West 459 528 36,000  Level FlightAware ADS-B
08:13AM 59.9397 13.9227 287° West 459 528 36,000  Level FlightAware ADS-B
08:13AM 59.9579 13.8002 287° West 460 529 36,000  Level FlightAware ADS-B
08:14AM 59.9850 13.6159 286° West 460 529 36,000  Level FlightAware ADS-B
08:14AM 60.0029 13.4939 286° West 459 528 36,000  Level FlightAware ADS-B
08:15AM 60.0195 13.3790 286° West 460 529 36,000  Level FlightAware ADS-B
08:15AM 60.0381 13.2497 286° West 461 531 36,000  Level FlightAware ADS-B
08:16AM 60.0558 13.1261 285° West 458 527 36,000  Level FlightAware ADS-B
08:17AM 60.0813 12.9451 285° West 460 529 36,000  Level FlightAware ADS-B
08:17AM 60.0992 12.8172 285° West 461 531 36,000  Level FlightAware ADS-B
08:18AM 60.1240 12.6384 284° West 463 533 36,000  Level FlightAware ADS-B
08:18AM 60.1414 12.5120 285° West 464 534 36,000  Level FlightAware ADS-B
08:19AM 60.1588 12.3845 284° West 463 533 36,000  Level FlightAware ADS-B
08:20AM 60.1838 12.1993 284° West 463 533 36,000  Level FlightAware ADS-B
08:20AM 60.2003 12.0750 284° West 464 534 36,000  Level FlightAware ADS-B
08:21AM 60.2171 11.9485 284° West 465 535 36,000  Level FlightAware ADS-B
08:21AM 60.2335 11.8237 284° West 465 535 36,000  Level FlightAware ADS-B
08:22AM 60.2500 11.6966 285° West 468 539 36,000  Level FlightAware ADS-B
08:22AM 60.2661 11.5719 285° West 468 539 36,000  Level FlightAware ADS-B
08:23AM 60.2824 11.4444 284° West 469 540 36,000  Level FlightAware ADS-B
08:23AM 60.2981 11.3211 284° West 467 537 36,000  Level FlightAware ADS-B
08:24AM 60.3221 11.1306 284° West 467 537 36,000  Level FlightAware ADS-B
08:24AM 60.3382 11.0006 284° West 465 535 36,000  Level FlightAware ADS-B
08:25AM 60.3613 10.8140 284° West 464 534 36,000  Level FlightAware ADS-B
08:26AM 60.3818 10.6445 283° West 460 529 36,000  Level FlightAware ADS-B
08:28AM 60.4361 10.1892 282° West 459 528 36,000  Level FlightAware ADS-B
08:28AM 60.4538 10.0362 282° West 459 528 36,000  Level FlightAware ADS-B
08:29AM 60.4700 9.8956 282° West 459 528 36,000  Level FlightAware ADS-B
08:31AM 60.5165 9.5040 284° West  Level Estimated
08:32AM 60.5447 9.2612 283° West  Level Estimated
08:33AM 60.5725 9.0180 283° West  Level Estimated
08:34AM 60.5998 8.7744 283° West  Level Estimated
08:35AM 60.6267 8.5303 283° West  Level Estimated
08:36AM 60.6531 8.2858 283° West  Level Estimated
08:37AM 60.6791 8.0410 282° West  Level Estimated
08:38AM 60.7046 7.7958 282° West  Level Estimated
08:39AM 60.7297 7.5501 282° West  Level Estimated
08:40AM 60.7543 7.3041 282° West  Level Estimated
08:41AM 60.7785 7.0577 281° West  Level Estimated
08:42AM 60.8022 6.8110 281° West  Level Estimated
08:43AM 60.8255 6.5639 281° West  Level Estimated
08:44AM 60.8483 6.3164 281° West  Level Estimated
08:45AM 60.8707 6.0686 281° West  Level Estimated
08:46AM 60.8926 5.8204 280° West  Level Estimated
08:47AM 60.9141 5.5719 280° West  Level Estimated
08:48AM 60.9350 5.3231 280° West  Level Estimated
08:49AM 60.9556 5.0739 280° West  Level Estimated
08:50AM 60.9756 4.8244 280° West  Level Estimated
08:51AM 60.9953 4.5746 279° West  Level Estimated
08:52AM 61.0144 4.3245 279° West  Level Estimated
08:53AM 61.0331 4.0741 279° West  Level Estimated
08:54AM 61.0513 3.8235 279° West  Level Estimated
08:55AM 61.0691 3.5725 278° West  Level Estimated
08:56AM 61.0864 3.3212 278° West  Level Estimated
08:57AM 61.1032 3.0697 278° West  Level Estimated
08:58AM 61.1195 2.8179 278° West  Level Estimated
08:59AM 61.1354 2.5659 278° West  Level Estimated
09:00AM 61.1508 2.3136 277° West  Level Estimated
09:01AM 61.1658 2.0611 277° West  Level Estimated
09:02AM 61.1803 1.8083 277° West  Level Estimated
09:03AM 61.1943 1.5553 277° West  Level Estimated
09:04AM 61.2078 1.3021 276° West  Level Estimated
09:05AM 61.2209 1.0487 276° West  Level Estimated
09:06AM 61.2335 0.7950 276° West  Level Estimated
09:07AM 61.2456 0.5412 276° West  Level Estimated
09:08AM 61.2572 0.2872 276° West  Level Estimated
09:09AM 61.2684 0.0329 275° West  Level Estimated
09:10AM 61.2791 -0.2214 275° West  Level Estimated
09:11AM 61.2893 -0.4760 275° West  Level Estimated
09:12AM 61.2990 -0.7307 275° West  Level Estimated
09:13AM 61.3083 -0.9856 274° West  Level Estimated
09:14AM 61.3171 -1.2406 274° West  Level Estimated
09:15AM 61.3254 -1.4958 274° West  Level Estimated
09:16AM 61.3332 -1.7511 274° West  Level Estimated
09:17AM 61.3405 -2.0065 274° West  Level Estimated
09:18AM 61.3474 -2.2620 273° West  Level Estimated
09:19AM 61.3538 -2.5177 273° West  Level Estimated
09:20AM 61.3597 -2.7734 273° West  Level Estimated
09:21AM 61.3651 -3.0292 273° West  Level Estimated
09:22AM 61.3700 -3.2852 272° West  Level Estimated
09:23AM 61.3745 -3.5412 272° West  Level Estimated
09:24AM 61.3785 -3.7972 272° West  Level Estimated
09:25AM 61.3820 -4.0533 272° West  Level Estimated
09:26AM 61.3850 -4.3095 272° West  Level Estimated
09:27AM 61.3876 -4.5657 271° West  Level Estimated
09:28AM 61.3896 -4.8220 271° West  Level Estimated
09:29AM 61.3912 -5.0783 271° West  Level Estimated
09:30AM 61.3923 -5.3346 271° West  Level Estimated
09:31AM 61.3929 -5.5909 270° West  Level Estimated
09:32AM 61.3930 -5.8473 270° West  Level Estimated
09:33AM 61.3927 -6.1036 270° West  Level Estimated
09:34AM 61.3918 -6.3599 270° West  Level Estimated
09:35AM 61.3905 -6.6162 269° West  Level Estimated
09:36AM 61.3887 -6.8725 269° West  Level Estimated
09:37AM 61.3864 -7.1288 269° West  Level Estimated
09:38AM 61.3837 -7.3850 269° West  Level Estimated
09:39AM 61.3804 -7.6411 269° West  Level Estimated
09:40AM 61.3767 -7.8972 268° West  Level Estimated
09:41AM 61.3725 -8.1532 268° West  Level Estimated
09:42AM 61.3678 -8.4092 268° West  Level Estimated
09:43AM 61.3626 -8.6651 268° West  Level Estimated
09:44AM 61.3570 -8.9209 267° West  Level Estimated
09:45AM 61.3508 -9.1766 267° West  Level Estimated
09:46AM 61.3442 -9.4322 267° West  Level Estimated
09:47AM 61.3371 -9.6876 267° West  Level Estimated
09:48AM 61.3296 -9.9430 267° West  Level Estimated
09:49AM 61.3215 -10.1982 266° West  Level Estimated
09:50AM 61.3130 -10.4533 266° West  Level Estimated
09:51AM 61.3040 -10.7083 266° West  Level Estimated
09:52AM 61.2945 -10.9631 266° West  Level Estimated
09:53AM 61.2845 -11.2177 265° West  Level Estimated
09:54AM 61.2741 -11.4722 265° West  Level Estimated
09:55AM 61.2632 -11.7265 265° West  Level Estimated
09:56AM 61.2518 -11.9806 265° West  Level Estimated
09:57AM 61.2400 -12.2346 265° West  Level Estimated
09:58AM 61.2276 -12.4883 264° West  Level Estimated
09:59AM 61.2148 -12.7419 264° West  Level Estimated
10:00AM 61.2015 -12.9952 264° West  Level Estimated
10:01AM 61.1878 -13.2483 264° West  Level Estimated
10:02AM 61.1735 -13.5012 263° West  Level Estimated
10:03AM 61.1589 -13.7539 263° West  Level Estimated
10:04AM 61.1437 -14.0063 263° West  Level Estimated
10:05AM 61.1280 -14.2585 263° West  Level Estimated
10:06AM 61.1119 -14.5104 263° West  Level Estimated
10:07AM 61.0954 -14.7620 262° West  Level Estimated
10:08AM 61.0783 -15.0134 262° West  Level Estimated
10:09AM 61.0608 -15.2646 262° West  Level Estimated
10:10AM 61.0428 -15.5154 262° West  Level Estimated
10:11AM 61.0244 -15.7659 261° West  Level Estimated
10:12AM 61.0055 -16.0162 261° West  Level Estimated
10:14AM 60.9663 -16.5158 261° West  Level Estimated
10:15AM 60.9460 -16.7651 261° West  Level Estimated
10:16AM 60.9253 -17.0141 260° West  Level Estimated
10:17AM 60.9040 -17.2628 260° West  Level Estimated
10:18AM 60.8824 -17.5112 260° West  Level Estimated
10:19AM 60.8603 -17.7592 260° West  Level Estimated
10:20AM 60.8377 -18.0068 260° West  Level Estimated
10:21AM 60.8147 -18.2541 259° West  Level Estimated
10:22AM 60.7912 -18.5011 259° West  Level Estimated
10:23AM 60.7672 -18.7477 259° West  Level Estimated
10:24AM 60.7428 -18.9939 259° West  Level Estimated
10:25AM 60.7180 -19.2397 258° West  Level Estimated
10:26AM 60.6927 -19.4851 258° West  Level Estimated
10:27AM 60.6670 -19.7302 258° West  Level Estimated
10:28AM 60.6408 -19.9749 258° West  Level Estimated
10:29AM 60.6141 -20.2191 258° West  Level Estimated
10:30AM 60.5871 -20.4630 257° West  Level Estimated
10:31AM 60.5595 -20.7064 257° West  Level Estimated
10:32AM 60.5316 -20.9495 257° West  Level Estimated
10:33AM 60.5032 -21.1921 257° West  Level Estimated
10:34AM 60.4743 -21.4342 257° West  Level Estimated
10:35AM 60.4451 -21.6760 256° West  Level Estimated
10:36AM 60.4153 -21.9173 256° West  Level Estimated
10:37AM 60.3852 -22.1582 256° West  Level Estimated
10:38AM 60.3546 -22.3986 256° West  Level Estimated
10:39AM 60.3236 -22.6385 255° West  Level Estimated
10:40AM 60.2921 -22.8780 255° West  Level Estimated
10:41AM 60.2603 -23.1171 255° West  Level Estimated
10:42AM 60.2279 -23.3556 255° West  Level Estimated
10:43AM 60.1952 -23.5938 255° West  Level Estimated
10:44AM 60.1620 -23.8314 254° West  Level Estimated
10:45AM 60.1284 -24.0685 254° West  Level Estimated
10:46AM 60.0944 -24.3051 254° West  Level Estimated
10:47AM 60.0600 -24.5413 254° West  Level Estimated
10:48AM 60.0252 -24.7770 254° West  Level Estimated
10:49AM 59.9899 -25.0121 253° West  Level Estimated
10:50AM 59.9542 -25.2468 253° West  Level Estimated
10:51AM 59.9181 -25.4809 253° West  Level Estimated
10:52AM 59.8816 -25.7146 253° West  Level Estimated
10:53AM 59.8446 -25.9477 253° West  Level Estimated
10:54AM 59.8073 -26.1803 252° West  Level Estimated
10:55AM 59.7696 -26.4124 252° West  Level Estimated
10:56AM 59.7314 -26.6440 252° West  Level Estimated
10:57AM 59.6928 -26.8750 252° West  Level Estimated
10:58AM 59.6539 -27.1055 252° West  Level Estimated
10:59AM 59.6145 -27.3354 251° West  Level Estimated
11:00AM 59.5747 -27.5648 251° West  Level Estimated
11:01AM 59.5345 -27.7937 251° West  Level Estimated
11:02AM 59.4940 -28.0220 251° West  Level Estimated
11:03AM 59.4530 -28.2498 251° West  Level Estimated
11:04AM 59.4116 -28.4770 250° West  Level Estimated
11:05AM 59.3699 -28.7037 250° West  Level Estimated
11:06AM 59.3277 -28.9298 250° West  Level Estimated
11:07AM 59.2852 -29.1553 250° West  Level Estimated
11:08AM 59.2422 -29.3803 250° West  Level Estimated
11:09AM 59.1989 -29.6047 249° West  Level Estimated
11:10AM 59.1552 -29.8285 249° West  Level Estimated
11:11AM 59.1111 -30.0518 249° West  Level Estimated
11:12AM 59.0667 -30.2744 249° West  Level Estimated
11:13AM 59.0218 -30.4965 249° West  Level Estimated
11:14AM 58.9766 -30.7181 248° West  Level Estimated
11:15AM 58.9310 -30.9390 248° West  Level Estimated
11:16AM 58.8850 -31.1594 248° West  Level Estimated
11:17AM 58.8386 -31.3791 248° West  Level Estimated
11:18AM 58.7919 -31.5983 248° West  Level Estimated
11:19AM 58.7448 -31.8169 248° West  Level Estimated
11:20AM 58.6973 -32.0349 247° West  Level Estimated
11:21AM 58.6495 -32.2523 247° West  Level Estimated
11:22AM 58.6013 -32.4691 247° West  Level Estimated
11:23AM 58.5527 -32.6853 247° West  Level Estimated
11:24AM 58.5038 -32.9009 247° West  Level Estimated
11:25AM 58.4545 -33.1158 246° West  Level Estimated
11:26AM 58.4049 -33.3302 246° West  Level Estimated
11:27AM 58.3549 -33.5440 246° West  Level Estimated
11:28AM 58.3045 -33.7572 246° West  Level Estimated
11:29AM 58.2538 -33.9698 246° West  Level Estimated
11:30AM 58.2027 -34.1817 246° West  Level Estimated
11:31AM 58.1513 -34.3931 245° Southwest  Level Estimated
11:32AM 58.0995 -34.6038 245° Southwest  Level Estimated
11:33AM 58.0474 -34.8139 245° Southwest  Level Estimated
11:34AM 57.9950 -35.0235 245° Southwest  Level Estimated
11:35AM 57.9422 -35.2324 245° Southwest  Level Estimated
11:36AM 57.8890 -35.4407 244° Southwest  Level Estimated
11:37AM 57.8356 -35.6483 244° Southwest  Level Estimated
11:38AM 57.7817 -35.8554 244° Southwest  Level Estimated
11:39AM 57.7298 -36.0534 244° Southwest  Level Estimated
11:40AM 57.6776 -36.2509 244° Southwest  Level Estimated
11:41AM 57.6250 -36.4478 244° Southwest  Level Estimated
11:42AM 57.5721 -36.6441 243° Southwest  Level Estimated
11:43AM 57.5190 -36.8398 243° Southwest  Level Estimated
11:44AM 57.4655 -37.0350 243° Southwest  Level Estimated
11:45AM 57.4117 -37.2296 243° Southwest  Level Estimated
11:46AM 57.3577 -37.4237 243° Southwest  Level Estimated
11:47AM 57.3033 -37.6171 243° Southwest  Level Estimated
11:48AM 57.2486 -37.8100 242° Southwest  Level Estimated
11:49AM 57.1937 -38.0023 242° Southwest  Level Estimated
11:50AM 57.1384 -38.1941 242° Southwest  Level Estimated
11:51AM 57.0829 -38.3853 242° Southwest  Level Estimated
11:52AM 57.0271 -38.5759 242° Southwest  Level Estimated
11:53AM 56.9709 -38.7659 242° Southwest  Level Estimated
11:54AM 56.9145 -38.9553 241° Southwest  Level Estimated
11:55AM 56.8578 -39.1442 241° Southwest  Level Estimated
11:56AM 56.8009 -39.3325 241° Southwest  Level Estimated
11:57AM 56.7436 -39.5203 241° Southwest  Level Estimated
11:58AM 56.6861 -39.7074 241° Southwest  Level Estimated
11:59AM 56.6283 -39.8940 241° Southwest  Level Estimated
11:59AM 64.2000 -48.5500 240° Southwest 490 564 36,000  Level Gander Center
12:00PM 56.5702 -40.0800 241° Southwest  Level Estimated
12:00PM 64.1500 -48.8333 248° West 490 564 36,000  Level Gander Center
12:01PM 56.5118 -40.2655 240° Southwest  Level Estimated
12:01PM 64.1333 -49.1500 263° West 490 564 36,000  Level Gander Center
12:02PM 56.4531 -40.4504 240° Southwest  Level Estimated
12:02PM 64.0833 -49.4333 248° West 490 564 36,000  Level Gander Center
12:03PM 56.3942 -40.6347 240° Southwest  Level Estimated
12:03PM 64.0333 -49.7167 248° West 480 552 36,000  Level Gander Center
12:04PM 56.3350 -40.8184 240° Southwest  Level Estimated
12:04PM 64.0167 -50.0000 262° West 490 564 36,000  Level Gander Center
12:05PM 56.2755 -41.0016 240° Southwest  Level Estimated
12:05PM 63.9667 -50.2833 248° West 490 564 36,000  Level Gander Center
12:06PM 63.9167 -50.5667 248° West 480 552 36,000  Level Gander Center
12:07PM 63.8833 -50.7333 246° West 490 564 36,000  Level Gander Center
12:08PM 63.8333 -51.0500 250° West 490 564 36,000  Level Gander Center
12:09PM 63.7833 -51.3333 248° West 490 564 36,000  Level Gander Center
12:10PM 63.7333 -51.6167 248° West 490 564 36,000  Level Gander Center
12:11PM 63.7000 -51.8833 254° West 490 564 36,000  Level Gander Center
12:12PM 63.6500 -52.1667 248° West 490 564 36,000  Level Gander Center
12:13PM 63.6000 -52.4500 248° West 480 552 36,000  Level Gander Center
12:14PM 63.5500 -52.7167 247° West 490 564 36,000  Level Gander Center
12:15PM 63.5000 -53.0000 249° West 490 564 36,000  Level Gander Center
12:16PM 63.4500 -53.2667 247° West 490 564 36,000  Level Gander Center
12:17PM 63.4000 -53.5500 249° West 490 564 36,000  Level Gander Center
12:18PM 63.3500 -53.8167 247° West 480 552 36,000  Level Gander Center
12:19PM 63.3000 -54.1000 249° West 480 552 36,000  Level Gander Center
12:20PM 63.2333 -54.3667 241° Southwest 480 552 36,000  Level Gander Center
12:21PM 63.1833 -54.6667 250° West 490 564 36,000  Level Gander Center
12:22PM 63.1333 -54.9333 248° West 490 564 36,000  Level Gander Center
12:23PM 63.0833 -55.2000 248° West 490 564 36,000  Level Gander Center
12:24PM 63.0167 -55.4667 241° Southwest 490 564 36,000  Level Gander Center
12:25PM 62.9667 -55.7333 248° West 490 564 36,000  Level Gander Center
12:26PM 62.9167 -56.0000 248° West 490 564 36,000  Level Gander Center
12:28PM 62.8000 -56.5333 245° Southwest 490 564 36,000  Level Gander Center
12:29PM 62.7500 -56.8000 248° West 490 564 36,000  Level Gander Center
12:30PM 62.7000 -57.0500 247° West 490 564 36,000  Level Gander Center
12:32PM 62.5667 -57.5833 242° Southwest 490 564 36,000  Level Gander Center
12:33PM 62.4833 -57.8000 230° Southwest 490 564 36,000  Level Gander Center
12:34PM 62.4000 -58.0667 236° Southwest 490 564 36,000  Level Gander Center
12:35PM 62.3333 -58.2833 237° Southwest 490 564 36,000  Level Gander Center
12:36PM 62.2500 -58.5333 234° Southwest 490 564 36,000  Level Gander Center
12:37PM 62.1667 -58.7667 233° Southwest 490 564 36,000  Level Gander Center
12:38PM 62.0833 -58.9833 231° Southwest 490 564 36,000  Level Gander Center
12:39PM 62.0167 -59.2333 240° Southwest 490 564 36,000  Level Gander Center
12:40PM 61.9333 -59.4500 231° Southwest 490 564 36,000  Level Gander Center
12:41PM 61.8500 -59.7000 235° Southwest 490 564 36,000  Level Gander Center
12:42PM 61.7667 -59.9167 231° Southwest 480 552 36,000  Level Gander Center
12:43PM 61.6833 -60.1333 231° Southwest 480 552 36,000  Level Gander Center
12:44PM 61.6167 -60.3667 239° Southwest 480 552 36,000  Level Gander Center
12:45PM 61.5333 -60.5833 231° Southwest 480 552 36,000  Level Gander Center
12:46PM 61.4500 -60.8000 231° Southwest 480 552 36,000  Level Gander Center
12:47PM 61.3667 -61.0333 233° Southwest 480 552 36,000  Level Gander Center
12:48PM 61.2833 -61.2500 231° Southwest 480 552 36,000  Level Gander Center
12:49PM 61.2000 -61.4500 229° Southwest 480 552 36,000  Level Gander Center
12:50PM 61.1167 -61.6667 232° Southwest 480 552 36,000  Level Gander Center
12:51PM 61.0333 -61.9000 234° Southwest 480 552 36,000  Level Gander Center
12:52PM 60.9500 -62.1000 229° Southwest 480 552 36,000  Level Gander Center
12:53PM 60.8667 -62.3000 229° Southwest 480 552 36,000  Level Gander Center
12:54PM 60.8000 -62.5500 241° Southwest 480 552 36,000  Level Gander Center
12:55PM 60.6833 -62.7333 218° Southwest 480 552 36,000  Level Gander Center
12:56PM 60.6167 -62.9833 242° Southwest 480 552 36,000  Level Gander Center
12:57PM 60.5333 -63.1667 227° Southwest 480 552 36,000  Level Gander Center
12:58PM 60.4500 -63.3667 230° Southwest 480 552 36,000  Level Gander Center
12:59PM 60.3667 -63.6000 234° Southwest 480 552 36,000  Level Gander Center
01:00PM 60.2833 -63.6833 206° Southwest 470 541 36,000  Level Montreal Center
01:01PM 60.1833 -63.9833 236° Southwest 480 552 36,000  Level Gander Center
01:02PM 60.1000 -64.1833 230° Southwest 480 552 36,000  Level Gander Center
01:03PM 60.0167 -64.3833 230° Southwest 480 552 36,000  Level Gander Center
01:04PM 59.9333 -64.6000 233° Southwest 480 552 36,000  Level Gander Center
01:05PM 59.8333 -64.8000 225° Southwest 480 552 36,000  Level Gander Center
01:06PM 59.7500 -64.9833 228° Southwest 480 552 36,000  Level Gander Center
01:07PM 59.6667 -65.1667 228° Southwest 480 552 36,000  Level Gander Center
01:08PM 59.5667 -65.3833 228° Southwest 480 552 36,000  Level Gander Center
01:09PM 59.4833 -65.5833 231° Southwest 480 552 36,000  Level Gander Center
01:10PM 59.4000 -65.8000 233° Southwest 480 552 36,000  Level Gander Center
01:11PM 59.3000 -65.9833 223° Southwest 480 552 36,000  Level Gander Center
01:12PM 59.2167 -66.1667 228° Southwest 480 552 36,000  Level Gander Center
01:13PM 59.1333 -66.3500 229° Southwest 470 541 36,000  Level Gander Center
01:14PM 59.0500 -66.5333 229° Southwest 470 541 36,000  Level Gander Center
01:15PM 58.9667 -66.7167 229° Southwest 470 541 36,000  Level Gander Center
01:16PM 58.8667 -66.8833 221° Southwest 470 541 36,000  Level Gander Center
01:17PM 58.7833 -67.0667 229° Southwest 460 529 36,000  Level Gander Center
01:18PM 58.7000 -67.2500 229° Southwest 460 529 36,000  Level Gander Center
01:19PM 58.6167 -67.4333 229° Southwest 460 529 36,000  Level Gander Center
01:20PM 58.5167 -67.6000 221° Southwest 470 541 36,000  Level Gander Center
01:21PM 58.4333 -67.7833 229° Southwest 470 541 36,000  Level Gander Center
01:22PM 58.3333 -67.9833 226° Southwest 470 541 36,000  Level Gander Center
01:23PM 58.2500 -68.1667 229° Southwest 470 541 36,000  Level Gander Center
01:24PM 58.1500 -68.3667 227° Southwest 480 552 36,000  Level Gander Center
01:25PM 58.0500 -68.5000 215° Southwest 480 552 36,000  Level Gander Center
01:26PM 57.9500 -68.6500 219° Southwest 470 541 36,000  Level Gander Center
01:27PM 57.8333 -68.8167 217° Southwest 470 541 36,000  Level Gander Center
01:28PM 57.7333 -68.9500 215° Southwest 470 541 36,000  Level Gander Center
01:29PM 57.6167 -69.1167 217° Southwest 470 541 36,000  Level Gander Center
01:30PM 57.5167 -69.2500 216° Southwest 480 552 36,000  Level Gander Center
01:31PM 57.4167 -69.3833 216° Southwest 480 552 36,000  Level Gander Center
01:32PM 57.3167 -69.5167 216° Southwest 470 541 36,000  Level Gander Center
01:33PM 57.2000 -69.6667 215° Southwest 470 541 36,000  Level Gander Center
01:34PM 57.0833 -69.8000 212° Southwest 470 541 36,000  Level Gander Center
01:35PM 56.9833 -69.9333 216° Southwest 470 541 36,000  Level Gander Center
01:36PM 56.8667 -70.0667 212° Southwest 470 541 36,000  Level Gander Center
01:37PM 56.7833 -70.2167 225° Southwest 480 552 36,000  Level Gander Center
01:38PM 56.6667 -70.3500 212° Southwest 470 541 36,000  Level Gander Center
01:39PM 56.5500 -70.4833 212° Southwest 470 541 36,000  Level Gander Center
01:40PM 56.4500 -70.6000 213° Southwest 470 541 36,000  Level Gander Center
01:41PM 56.3333 -70.7500 216° Southwest 470 541 36,000  Level Gander Center
01:42PM 56.2167 -70.8833 212° Southwest 460 529 36,000  Level Gander Center
01:43PM 56.1333 -71.0167 222° Southwest 460 529 36,000  Level Gander Center
01:44PM 56.0167 -71.1333 209° Southwest 470 541 36,000  Level Gander Center
01:45PM 55.9167 -71.2500 213° Southwest 470 541 36,000  Level Gander Center
01:46PM 55.8000 -71.4000 216° Southwest 470 541 36,000  Level Gander Center
01:47PM 55.6833 -71.5333 213° Southwest 470 541 36,000  Level Gander Center
01:48PM 55.5833 -71.6500 213° Southwest 470 541 36,000  Level Gander Center
01:49PM 55.4833 -71.7667 213° Southwest 470 541 36,000  Level Gander Center
01:50PM 55.3667 -71.9167 216° Southwest 470 541 36,000  Level Gander Center
01:51PM 55.2500 -72.0333 210° Southwest 470 541 36,000  Level Gander Center
01:52PM 55.1500 -72.1500 214° Southwest 470 541 36,000  Level Gander Center
01:53PM 55.0500 -72.2833 217° Southwest 470 541 36,000  Level Gander Center
01:54PM 54.9333 -72.4000 210° Southwest 470 541 36,000  Level Gander Center
01:55PM 54.8333 -72.5167 214° Southwest 460 529 36,000  Level Gander Center
01:56PM 54.7333 -72.6333 214° Southwest 460 529 36,000  Level Gander Center
01:57PM 54.6167 -72.7500 210° Southwest 460 529 36,000  Level Gander Center
01:58PM 54.5000 -72.8833 214° Southwest 460 529 36,000  Level Gander Center
01:59PM 54.4000 -73.0000 214° Southwest 460 529 36,000  Level Gander Center
02:00PM 54.2833 -73.1167 210° Southwest 460 529 36,000  Level Gander Center
02:01PM 54.1833 -73.2333 214° Southwest 460 529 36,000  Level Gander Center
02:02PM 54.0667 -73.3500 210° Southwest 460 529 36,000  Level Gander Center
02:03PM 53.9667 -73.4500 210° Southwest 460 529 36,000  Level Gander Center
02:04PM 53.8667 -73.5667 215° Southwest 460 529 36,000  Level Gander Center
02:05PM 53.7500 -73.6833 211° Southwest 460 529 36,000  Level Gander Center
02:06PM 53.6333 -73.7833 207° Southwest 460 529 36,000  Level Gander Center
02:07PM 53.5333 -73.9000 215° Southwest 460 529 36,000  Level Gander Center
02:08PM 53.4167 -73.9833 203° Southwest 450 518 36,000  Level Gander Center
02:09PM 53.3000 -74.0833 207° Southwest 460 529 36,000  Level Gander Center
02:10PM 53.1667 -74.1833 204° Southwest 460 529 36,000  Level Gander Center
02:11PM 53.0667 -74.2667 207° Southwest 460 529 36,000  Level Gander Center
02:12PM 52.9500 -74.3667 207° Southwest 460 529 36,000  Level Gander Center
02:13PM 52.8333 -74.4500 203° Southwest 450 518 36,000  Level Gander Center
02:14PM 52.7333 -74.5667 215° Southwest 450 518 36,000  Level Gander Center
02:15PM 52.6167 -74.6333 199° South 450 518 36,000  Level Gander Center
02:16PM 52.5000 -74.7333 208° Southwest 450 518 36,000  Level Gander Center
02:17PM 52.4000 -74.8167 207° Southwest 450 518 36,000  Level Gander Center
02:18PM 52.2833 -74.9000 204° Southwest 450 518 36,000  Level Gander Center
02:19PM 52.1667 -75.0000 208° Southwest 450 518 36,000  Level Gander Center
02:20PM 52.0667 -75.0667 202° Southwest 450 518 36,000  Level Gander Center
02:21PM 51.9500 -75.1833 212° Southwest 450 518 36,000  Level Gander Center
02:22PM 51.8333 -75.2833 208° Southwest 450 518 36,000  Level Gander Center
02:23PM 51.7167 -75.3500 199° South 450 518 36,000  Level Gander Center
02:24PM 51.6167 -75.4333 207° Southwest 450 518 36,000  Level Gander Center
02:25PM 51.5000 -75.5333 208° Southwest 450 518 36,000  Level Gander Center
02:26PM 51.4000 -75.6000 203° Southwest 450 518 36,000  Level Gander Center
02:27PM 51.2667 -75.6500 193° South 450 518 36,000  Level Montreal Center
02:28PM 51.1500 -75.7167 200° South 440 506 36,000  Level Montreal Center
02:29PM 51.0333 -75.8333 212° Southwest 450 518 36,000  Level Montreal Center
02:30PM 50.9333 -75.9167 208° Southwest 440 506 36,000  Level Montreal Center
02:31PM 50.8167 -76.0000 204° Southwest 440 506 36,000  Level Montreal Center
02:32PM 50.7000 -76.0667 200° South 440 506 36,000  Level Montreal Center
02:33PM 50.6000 -76.1500 208° Southwest 440 506 36,000  Level Montreal Center
02:34PM 50.4833 -76.2333 204° Southwest 440 506 36,000  Level Montreal Center
02:35PM 50.3833 -76.3167 208° Southwest 440 506 36,000  Level Montreal Center
02:36PM 50.2667 -76.3833 200° South 440 506 36,000  Level Montreal Center
02:37PM 50.1667 -76.4667 208° Southwest 430 495 36,000  Level Montreal Center
02:38PM 50.0333 -76.5500 202° Southwest 440 506 36,000  Level Montreal Center
02:39PM 49.9167 -76.6167 200° South 430 495 36,000  Level Montreal Center
02:40PM 49.8000 -76.7167 209° Southwest 430 495 36,000  Level Montreal Center
02:41PM 49.7000 -76.7667 198° South 430 495 36,000  Level Montreal Center
02:42PM 49.5833 -76.8667 209° Southwest 440 506 36,000  Level Montreal Center
02:43PM 49.4833 -76.9500 208° Southwest 430 495 36,000  Level Montreal Center
02:44PM 49.3667 -77.0167 200° South 460 529 36,000  Level Montreal Center
02:45PM 49.2667 -77.1000 209° Southwest 430 495 36,000  Level Montreal Center
02:46PM 49.1500 -77.1667 200° South 430 495 36,000  Level Montreal Center
02:47PM 49.0333 -77.2500 205° Southwest 440 506 36,000  Level Montreal Center
02:48PM 48.9167 -77.3167 201° Southwest 450 518 36,000  Level Montreal Center
02:49PM 48.8000 -77.4000 205° Southwest 450 518 36,000  Level Montreal Center
02:50PM 48.6833 -77.4667 201° Southwest 440 506 36,000  Level Montreal Center
02:51PM 48.5667 -77.5667 210° Southwest 440 506 36,000  Level Montreal Center
02:52PM 48.4667 -77.6333 204° Southwest 440 506 36,000  Level Montreal Center
02:53PM 48.3500 -77.7167 205° Southwest 440 506 36,000  Level Montreal Center
02:54PM 48.2500 -77.7833 204° Southwest 440 506 36,000  Level Montreal Center
02:55PM 48.1333 -77.8500 201° Southwest 430 495 36,000  Level Montreal Center
02:56PM 48.0167 -77.9333 206° Southwest 430 495 36,000  Level Montreal Center
02:57PM 47.9000 -77.9667 191° South 430 495 36,000  Level Montreal Center
02:58PM 47.7833 -78.0333 201° Southwest 440 506 36,000  Level Montreal Center
02:59PM 47.6667 -78.1167 206° Southwest 430 495 36,000  Level Montreal Center
03:00PM 47.5667 -78.1833 204° Southwest 430 495 36,000  Level Montreal Center
03:01PM 47.4500 -78.2500 201° Southwest 430 495 36,000  Level Montreal Center
03:02PM 47.3500 -78.3000 199° South 430 495 36,000  Level Montreal Center
03:08PM 46.7405 -78.6421 201° Southwest 425 489 36,000  Level FlightAware ADS-B (CYYZ)
03:08PM 46.6479 -78.6934 201° Southwest 426 490 36,000  Level FlightAware ADS-B (CYYZ)
03:09PM 46.5633 -78.7401 201° Southwest 426 490 36,000  Level FlightAware ADS-B (CYYZ)
03:10PM 46.4749 -78.7889 201° Southwest 426 490 36,000  Level FlightAware ADS-B (CYYZ)
03:11PM 46.3913 -78.8349 201° Southwest 430 495 36,000  Level FlightAware ADS-B (CYYZ)
03:11PM 46.3190 -78.8744 201° Southwest 430 495 36,000  Level FlightAware ADS-B (CYYZ)
03:12PM 46.2241 -78.9262 201° Southwest 430 495 36,000  Level FlightAware ADS-B (CYYZ)
03:13PM 46.1461 -78.9686 201° Southwest 428 493 36,000  Level FlightAware ADS-B (CYYZ)
03:14PM 46.0560 -79.0174 201° Southwest 425 489 36,000  Level FlightAware ADS-B (CYYZ)
03:14PM 45.9757 -79.0608 201° Southwest 423 487 36,000  Level FlightAware ADS-B (CYYZ)
03:15PM 45.8964 -79.1036 201° Southwest 420 483 36,000  Level FlightAware ADS-B (CYYZ)
03:16PM 45.8428 -79.1323 201° Southwest 420 483 36,000  Level FlightAware ADS-B (CYYZ)
03:16PM 45.7834 -79.1642 201° Southwest 421 484 36,000  Level FlightAware ADS-B (CYYZ)
03:17PM 45.7274 -79.1942 201° Southwest 421 484 36,000  Level FlightAware ADS-B (CYYZ)
03:17PM 45.6447 -79.2383 201° Southwest 423 487 36,000  Level FlightAware ADS-B (CYYZ)
03:18PM 45.5915 -79.2666 201° Southwest 422 486 36,000  Level FlightAware ADS-B (CYYZ)
03:19PM 45.5077 -79.3110 201° Southwest 421 484 36,000  Level FlightAware ADS-B (CYYZ)
03:19PM 45.4584 -79.3372 201° Southwest 420 483 36,000  Level FlightAware ADS-B (CYYZ)
03:20PM 45.3994 -79.3684 201° Southwest 418 481 36,000  Level FlightAware ADS-B (CYYZ)
03:20PM 45.3433 -79.3980 201° Southwest 419 482 36,000  Level FlightAware ADS-B (CYYZ)
03:21PM 45.2891 -79.4265 201° Southwest 419 482 36,000  Level FlightAware ADS-B (CYYZ)
03:21PM 45.2348 -79.4550 201° Southwest 420 483 36,000  Level FlightAware ADS-B (CYYZ)
03:22PM 45.1551 -79.4967 201° Southwest 421 484 36,000  Level FlightAware ADS-B (CYYZ)
03:22PM 45.0961 -79.5274 201° Southwest 422 486 36,000  Level FlightAware ADS-B (CYYZ)
03:23PM 45.0152 -79.5695 201° Southwest 422 486 36,000  Level FlightAware ADS-B (CYYZ)
03:24PM 44.9306 -79.6135 201° Southwest 423 487 36,000  Level FlightAware ADS-B (CYYZ)
03:24PM 44.8950 -79.6320 200° South 423 487 36,000  Level FlightAware ADS-B (EPWA / WAW)
03:25PM 44.8481 -79.6562 201° Southwest 422 486 36,000  Level FlightAware ADS-B (CYYZ)
03:25PM 44.8950 -79.6320 200° South 422 486 36,000  Level FlightAware ADS-B (EPWA / WAW)
03:25PM 44.7923 -79.6850 201° Southwest 421 484 36,000  Level FlightAware ADS-B (CYYZ)
03:26PM 44.7397 -79.7122 201° Southwest 420 483 36,000  Level FlightAware ADS-B (CYYZ)
03:26PM 44.6829 -79.7414 201° Southwest 421 484 36,000  Level FlightAware ADS-B (CYYZ)
03:27PM 44.6291 -79.7692 201° Southwest 422 486 36,000  Level FlightAware ADS-B (CYYZ)
03:27PM 44.5491 -79.8220 211° Southwest 417 480 36,000  Level FlightAware ADS-B (CYYZ)
03:28PM 44.4866 -79.8787 214° Southwest 417 480 36,000  Level FlightAware ADS-B (CYYZ)
03:29PM 44.4402 -79.9212 213° Southwest 419 482 36,000  Level FlightAware ADS-B (EPWA / WAW)
03:29PM 44.4270 -79.9331 214° Southwest 418 481 36,000  Level FlightAware ADS-B (CYYZ)
03:29PM 44.3788 -79.9765 213° Southwest 418 481 36,000  Level FlightAware ADS-B (CYYZ)
03:29PM 44.3723 -79.9824 213° Southwest 418 481 36,000  Level FlightAware ADS-B (EPWA / WAW)
03:30PM 44.3263 -80.0237 213° Southwest 415 478 36,000  Level FlightAware ADS-B (EPWA / WAW)
03:30PM 44.3057 -80.0421 213° Southwest 411 473 36,000  Level FlightAware ADS-B (CYYZ)
03:30PM 44.2574 -80.0852 213° Southwest 404 465 36,000  Level FlightAware ADS-B (CYYZ)
03:31PM 44.2109 -80.1269 213° Southwest 404 465 36,000  Level FlightAware ADS-B (CYYZ)
03:31PM 44.1634 -80.1692 213° Southwest 401 461 36,000  Level FlightAware ADS-B (CYYZ)
03:32PM 44.1173 -80.2103 213° Southwest 398 458 36,000  Level FlightAware ADS-B (CYYZ)
03:32PM 44.0849 -80.2391 213° Southwest 397 457 36,000  Level FlightAware ADS-B (EPWA / WAW)
03:32PM 44.0704 -80.2520 213° Southwest 396 456 36,000  Level FlightAware ADS-B (CYYZ)
03:33PM 44.0254 -80.2918 213° Southwest 396 456 36,000  Level FlightAware ADS-B (CYYZ)
03:33PM 44.0235 -80.2936 213° Southwest 396 456 36,000  Level FlightAware ADS-B (EPWA / WAW)
03:33PM 44.0501 -80.2700 213° Southwest 396 456 36,000  Level FlightAware ADS-B (CYHM)
03:34PM 43.9539 -80.3550 213° Southwest 396 456 36,000  Level FlightAware ADS-B (CYYZ)
03:34PM 43.9081 -80.3955 212° Southwest 396 456 36,000  Level FlightAware ADS-B (EPWA / WAW)
03:34PM 43.8843 -80.4163 213° Southwest 396 456 36,000  Level FlightAware ADS-B (CYYZ)
03:35PM 43.8573 -80.4401 212° Southwest 394 453 36,000  Level FlightAware ADS-B (EPWA / WAW)
03:35PM 43.8147 -80.4774 213° Southwest 395 455 36,000  Level FlightAware ADS-B (CYYZ)
03:35PM 43.8083 -80.4830 212° Southwest 396 456 36,000  Level FlightAware ADS-B (EPWA / WAW)
03:36PM 43.7683 -80.5180 213° Southwest 394 453 36,000  Level FlightAware ADS-B (CYYZ)
03:36PM 43.7130 -80.5665 212° Southwest 396 456 36,000  Level FlightAware ADS-B (EPWA / WAW)
03:36PM 43.6995 -80.5783 213° Southwest 395 455 36,000  Level FlightAware ADS-B (CYYZ)
03:37PM 43.6523 -80.6196 213° Southwest 397 457 36,000  Level FlightAware ADS-B (CYYZ)
03:37PM 43.6055 -80.6604 213° Southwest 398 458 36,000  Level FlightAware ADS-B (CYYZ)
03:37PM 43.6065 -80.6595 212° Southwest 399 459 36,000  Level FlightAware ADS-B (CYHM)
03:38PM 43.5604 -80.6996 213° Southwest 400 460 36,000  Level FlightAware ADS-B (CYYZ)
03:38PM 43.5228 -80.7323 212° Southwest 401 461 36,000  Level FlightAware ADS-B (EPWA / WAW)
03:38PM 43.5112 -80.7424 213° Southwest 400 460 36,000  Level FlightAware ADS-B (CYYZ)
03:39PM 43.4531 -80.7928 212° Southwest 397 457 36,000  Level FlightAware ADS-B (EPWA / WAW)
03:39PM 43.4415 -80.8027 213° Southwest 396 456 36,000  Level FlightAware ADS-B (CYYZ)
03:40PM 43.4014 -80.8374 212° Southwest 398 458 36,000  Level FlightAware ADS-B (EPWA / WAW)
03:40PM 43.3954 -80.8426 213° Southwest 398 458 36,000  Level FlightAware ADS-B (CYYZ)
03:40PM 43.3497 -80.8820 213° Southwest 398 458 36,000  Level FlightAware ADS-B (CYYZ)
03:41PM 43.3088 -80.9172 212° Southwest 398 458 36,000  Level FlightAware ADS-B (EPWA / WAW)
03:41PM 43.3025 -80.9225 213° Southwest 398 458 36,000  Level FlightAware ADS-B (CYYZ)
03:41PM 43.2440 -80.9729 212° Southwest 400 460 36,000  Level FlightAware ADS-B (EPWA / WAW)
03:41PM 43.2320 -80.9832 213° Southwest 399 459 36,000  Level FlightAware ADS-B (CYYZ)
03:42PM 43.1839 -81.0244 212° Southwest 399 459 36,000  Level FlightAware ADS-B (CYYZ)
03:42PM 43.1718 -81.0347 212° Southwest 399 459 36,000  Level FlightAware ADS-B (EPWA / WAW)
03:42PM 43.1376 -81.0640 213° Southwest 398 458 36,000  Level FlightAware ADS-B (CYYZ)
03:43PM 43.0891 -81.1054 213° Southwest 401 461 36,000  Level FlightAware ADS-B (CYYZ)
03:43PM 43.0481 -81.1400 210° Southwest 400 460 36,000  Level FlightAware ADS-B (EPWA / WAW)
03:43PM 43.0416 -81.1450 210° Southwest 400 460 36,000  Level FlightAware ADS-B (CYYZ)
03:44PM 42.9908 -81.1771 204° Southwest 399 459 36,000  Level FlightAware ADS-B (CYYZ)
03:44PM 42.9779 -81.1849 204° Southwest 401 461 36,000  Level FlightAware ADS-B (EPWA / WAW)
03:44PM 42.9402 -81.2087 205° Southwest 400 460 36,000  Level FlightAware ADS-B (CYYZ)
03:45PM 42.8914 -81.2394 205° Southwest 401 461 36,000  Level FlightAware ADS-B (CYYZ)
03:45PM 42.8586 -81.2598 205° Southwest 402 463 36,000  Level FlightAware ADS-B (EPWA / WAW)
03:45PM 42.8403 -81.2712 205° Southwest 402 463 36,000  Level FlightAware ADS-B (CYYZ)
03:46PM 42.8055 -81.2926 204° Southwest 403 464 36,000  Level FlightAware ADS-B (EPWA / WAW)
03:46PM 42.7632 -81.3187 205° Southwest 403 464 36,000  Level FlightAware ADS-B (CYYZ)
03:46PM 42.7399 -81.3330 204° Southwest 404 465 36,000  Level FlightAware ADS-B (EPWA / WAW)
03:47PM 42.6854 -81.3664 205° Southwest 404 465 36,000  Level FlightAware ADS-B (CYYZ)
03:47PM 42.6782 -81.3709 204° Southwest 404 465 36,000  Level FlightAware ADS-B (EPWA / WAW)
03:48PM 42.6133 -81.4106 205° Southwest 405 466 36,000  Level FlightAware ADS-B (CYYZ)
03:48PM 42.5325 -81.4599 205° Southwest 405 466 36,000  Level FlightAware ADS-B (CYYZ)
03:49PM 42.4543 -81.5075 205° Southwest 406 467 36,000  Level FlightAware ADS-B (CYYZ)
03:50PM 42.4068 -81.5364 205° Southwest 408 470 36,000  Level FlightAware ADS-B (CYYZ)
03:50PM 42.3294 -81.5832 205° Southwest 410 472 36,000  Level FlightAware ADS-B (CYYZ)
03:51PM 42.2472 -81.6329 205° Southwest 413 475 36,000  Level FlightAware ADS-B (CYYZ)
03:52PM 42.1689 -81.6804 205° Southwest 413 475 36,000  Level FlightAware ADS-B (CYYZ)
03:52PM 42.1171 -81.7115 205° Southwest 412 474 36,000  Level FlightAware ADS-B (CYYZ)
03:53PM 42.0388 -81.7585 205° Southwest 412 474 36,000  Level FlightAware ADS-B (CYYZ)
03:54PM 42.0139 -81.7734 205° Southwest 411 473 36,000  Level FlightAware ADS-B (CYYZ)
03:54PM 41.9362 -81.8198 205° Southwest 414 476 36,000  Level FlightAware ADS-B (CYYZ)
03:55PM 41.8534 -81.8693 205° Southwest 417 480 36,000  Level FlightAware ADS-B (CYYZ)
03:55PM 41.7995 -81.9014 204° Southwest 418 481 36,000  Level FlightAware ADS-B (CYYZ)
03:56PM 41.7822 -81.9117 204° Southwest 418 481 36,000  Level FlightAware ADS-B (CYYZ)
03:57PM 41.6676 -81.9797 204° Southwest 419 482 36,000  Level FlightAware ADS-B (CYYZ)
03:57PM 41.5857 -82.0282 205° Southwest 420 483 36,000  Level FlightAware ADS-B (CYYZ)
03:58PM 41.5679 -82.0387 204° Southwest 421 484 36,000  Level FlightAware ADS-B (CYYZ)
03:58PM 41.4808 -82.0901 204° Southwest 423 487 36,000  Level FlightAware ADS-B (CYYZ)
03:59PM 41.4293 -82.1204 204° Southwest 423 487 36,000  Level FlightAware ADS-B (CYYZ)
04:00PM 41.3595 -82.1595 198° South 421 484 36,000  Level FlightAware ADS-B (CYYZ)
04:00PM 41.2909 -82.1849 196° South 416 479 36,000  Level FlightAware ADS-B (CYYZ)
04:01PM 41.2349 -82.2057 196° South 414 476 36,000  Level FlightAware ADS-B (CYYZ)
04:02PM 41.1319 -82.2442 196° South 411 473 36,000  Level Cleveland Center
04:03PM 41.0228 -82.2819 195° South 408 470 36,000  Level Cleveland Center
04:08PM 40.4293 -82.4916 195° South 404 465 36,000  Level FlightAware ADS-B
04:09PM 40.3539 -82.5179 195° South 404 465 36,000  Level FlightAware ADS-B
04:10PM 40.2672 -82.5481 195° South 404 465 36,000  Level FlightAware ADS-B
04:10PM 40.2146 -82.5664 195° South 403 464 36,000  Level FlightAware ADS-B
04:11PM 40.1623 -82.5828 190° South 404 465 36,000  Level FlightAware ADS-B
04:11PM 40.1072 -82.5909 183° South 408 470 36,000  Level FlightAware ADS-B
04:12PM 40.0482 -82.5947 183° South 407 468 36,000  Level FlightAware ADS-B
04:12PM 39.9996 -82.5984 183° South 408 470 36,000  Level FlightAware ADS-B
04:13PM 39.9352 -82.6030 183° South 408 470 36,000  Level FlightAware ADS-B
04:13PM 39.8807 -82.6068 183° South 407 468 36,000  Level FlightAware ADS-B
04:14PM 39.8214 -82.6109 183° South 406 467 36,000  Level FlightAware ADS-B
04:14PM 39.7593 -82.6151 183° South 403 464 36,000  Level FlightAware ADS-B
04:15PM 39.6981 -82.6192 183° South 400 460 36,000  Level FlightAware ADS-B
04:15PM 39.6277 -82.6239 183° South 399 459 36,000  Level FlightAware ADS-B
04:16PM 39.5720 -82.6277 183° South 398 458 36,000  Level FlightAware ADS-B
04:16PM 39.5184 -82.6312 183° South 397 457 36,000  Level FlightAware ADS-B
04:17PM 39.4491 -82.6359 183° South 398 458 36,000  Level FlightAware ADS-B
04:18PM 39.3934 -82.6396 183° South 400 460 36,000  Level FlightAware ADS-B
04:18PM 39.3308 -82.6437 183° South 400 460 36,000  Level FlightAware ADS-B
04:19PM 39.2647 -82.6482 183° South 399 459 36,000  Level FlightAware ADS-B
04:19PM 39.1941 -82.6528 183° South 398 458 36,000  Level FlightAware ADS-B
04:20PM 39.1382 -82.6565 183° South 397 457 36,000  Level FlightAware ADS-B
04:21PM 39.0501 -82.6624 183° South 398 458 36,000  Level FlightAware ADS-B
04:21PM 38.9929 -82.6662 183° South 398 458 36,000  Level FlightAware ADS-B
04:22PM 38.9387 -82.6697 183° South 399 459 36,000  Level FlightAware ADS-B
04:22PM 38.8839 -82.6733 183° South 399 459 36,000  Level FlightAware ADS-B
04:23PM 38.8269 -82.6771 183° South 399 459 36,000  Level FlightAware ADS-B
04:23PM 38.7719 -82.6808 183° South 393 452 36,000  Level FlightAware ADS-B
04:24PM 38.7158 -82.6845 183° South 394 453 36,000  Level FlightAware ADS-B
04:24PM 38.6435 -82.6893 183° South 402 463 36,000  Level FlightAware ADS-B
04:25PM 38.5966 -82.6924 183° South 410 472 36,000  Level FlightAware ADS-B
04:26PM 38.4874 -82.6993 183° South 411 473 36,000  Level FlightAware ADS-B
04:27PM 38.3844 -82.7053 183° South 408 470 36,000  Level Indianapolis Center
04:28PM 38.2531 -82.7161 184° South 408 470 36,000  Level Indianapolis Center
04:29PM 38.1383 -82.7228 183° South 408 470 36,000  Level Indianapolis Center
04:30PM 38.0200 -82.7303 183° South 418 481 36,000  Level Indianapolis Center
04:31PM 37.9042 -82.7375 183° South 420 483 36,000  Level Indianapolis Center
04:32PM 37.7906 -82.7444 183° South 412 474 36,000  Level Indianapolis Center
04:33PM 37.6767 -82.7661 189° South 412 474 36,000  Level Indianapolis Center
04:34PM 37.5708 -82.8200 202° Southwest 412 474 36,000  Level Indianapolis Center
04:35PM 37.4542 -82.9008 209° Southwest 411 473 36,000  Level Indianapolis Center
04:36PM 37.3517 -82.9672 207° Southwest 412 474 36,000  Level Indianapolis Center
04:37PM 37.2503 -83.0331 207° Southwest 412 474 36,000  Level Indianapolis Center
04:38PM 37.1483 -83.0997 208° Southwest 412 474 36,000  Level Indianapolis Center
04:39PM 37.0478 -83.1664 208° Southwest 412 474 36,000  Level Indianapolis Center
04:40PM 36.9292 -83.2422 207° Southwest 413 475 36,000  Level Indianapolis Center
04:41PM 36.8275 -83.3081 207° Southwest 413 475 36,000  Level Indianapolis Center
04:42PM 36.7258 -83.3733 207° Southwest 413 475 36,000  Level Indianapolis Center
04:43PM 36.6247 -83.4372 207° Southwest 412 474 36,000  Level Indianapolis Center
04:44PM 36.5242 -83.5019 207° Southwest 412 474 36,000  Level Indianapolis Center
04:45PM 36.4192 -83.5686 207° Southwest 412 474 36,000  Level Indianapolis Center
04:46PM 36.3175 -83.6331 207° Southwest 410 472 36,000  Level Indianapolis Center
04:47PM 36.2161 -83.6981 207° Southwest 410 472 36,000  Level Indianapolis Center
04:48PM 36.1119 -83.7633 207° Southwest 412 474 36,000  Level Indianapolis Center
04:49PM 36.0081 -83.8286 207° Southwest 413 475 36,000  Level Indianapolis Center
04:50PM 35.8792 -83.8964 203° Southwest 416 479 36,000  Level Indianapolis Center
04:51PM 35.7622 -83.9286 193° South 422 486 36,000  Level Indianapolis Center
04:53PM 35.6181 -83.9647 192° South 428 493 36,000  Level Atlanta Center
04:54PM 35.4972 -83.9928 191° South 435 501 36,000  Level Atlanta Center
04:55PM 35.3803 -84.0233 192° South 435 501 36,000  Level Atlanta Center
04:56PM 35.2614 -84.0514 191° South 435 501 36,000  Level Atlanta Center
04:57PM 35.1425 -84.0794 191° South 430 495 36,000  Level Atlanta Center
04:58PM 35.0256 -84.1097 192° South 430 495 36,000  Level Atlanta Center
04:59PM 34.9044 -84.1375 191° South 430 495 36,000  Level Atlanta Center
05:00PM 34.7833 -84.1653 191° South 435 501 36,000  Level Atlanta Center
05:01PM 34.6667 -84.1928 191° South 435 501 36,000  Level Atlanta Center
05:02PM 34.5517 -84.2203 191° South 430 495 36,000  Level Atlanta Center
05:03PM 34.4306 -84.2478 191° South 430 495 36,000  Level Atlanta Center
05:05PM 34.1925 -84.3050 191° South 430 495 36,000  Level Atlanta Center
05:06PM 34.0528 -84.3372 191° South 441 507 36,000  Level Atlanta Center
05:07PM 33.9378 -84.3669 192° South 448 516 36,000  Level Atlanta Center
05:08PM 33.8106 -84.3964 191° South 448 516 36,000  Level Atlanta Center
05:09PM 33.6892 -84.4233 190° South 453 521 36,000  Level Atlanta Center
05:10PM 33.5639 -84.4353 185° South 453 521 36,000  Level Atlanta Center
05:11PM 33.4389 -84.4322 179° South 453 521 36,000  Level Atlanta Center
05:12PM 33.3156 -84.4292 179° South 453 521 36,000  Level Atlanta Center
05:13PM 33.1883 -84.4286 180° South 453 521 36,000  Level Atlanta Center
05:14PM 33.0631 -84.4281 180° South 458 527 36,000  Level Atlanta Center
05:15PM 32.9358 -84.4225 178° South 458 527 36,000 -480 Level Atlanta Center
05:16PM 32.8106 -84.4194 179° South 458 527 35,100 -540 Descending Atlanta Center
05:17PM 32.6853 -84.4189 180° South 458 527 35,000 -60 Descending Atlanta Center
05:18PM 32.5600 -84.4158 179° South 458 527 35,000  Level Atlanta Center
05:19PM 32.4328 -84.4106 178° South 458 527 35,000  Level Atlanta Center
05:20PM 32.3075 -84.4100 180° South 458 527 35,000  Level Atlanta Center
05:21PM 32.1803 -84.4069 179° South 458 527 35,000  Level Atlanta Center
05:22PM 32.0364 -84.4022 178° South 437 503 35,000  Level Jacksonville Center
05:23PM 31.9050 -84.4025 180° South 451 519 35,000  Level Jacksonville Center
05:24PM 31.7797 -84.3981 178° South 456 525 35,000  Level Jacksonville Center
05:30PM 30.9957 -84.1472 159° South 474 545 35,000  Level FlightAware ADS-B (KTLH)
05:31PM 30.9337 -84.1183 158° South 474 545 35,000  Level FlightAware ADS-B (KTLH)
05:32PM 30.8261 -84.0686 159° South 476 548 35,000  Level FlightAware ADS-B (KTLH)
05:32PM 30.7635 -84.0401 159° South 477 549 35,000  Level FlightAware ADS-B (KTLH)
05:33PM 30.7005 -84.0115 159° South 475 547 35,000  Level FlightAware ADS-B (KTLH)
05:33PM 30.6394 -83.9838 159° South 474 545 35,000  Level FlightAware ADS-B (KTLH)
05:34PM 30.5831 -83.9584 159° South 475 547 35,000  Level FlightAware ADS-B (KTLH)
05:34PM 30.4964 -83.9193 159° South 476 548 35,000  Level FlightAware ADS-B (KTLH)
05:35PM 30.4366 -83.8927 159° South 474 545 35,000  Level FlightAware ADS-B (KTLH)
05:35PM 30.3555 -83.8570 159° South 475 547 35,000  Level FlightAware ADS-B (KTLH)
05:36PM 30.2843 -83.8256 159° South 474 545 35,000  Level FlightAware ADS-B (KTLH)
05:37PM 30.2078 -83.7918 159° South 470 541 35,000  Level FlightAware ADS-B (KTLH)
05:37PM 30.1298 -83.7574 159° South 469 540 35,000  Level FlightAware ADS-B (KTLH)
05:38PM 30.0626 -83.7279 159° South 470 541 35,000  Level FlightAware ADS-B (KTLH)
05:38PM 29.9909 -83.6964 159° South 471 542 35,000  Level FlightAware ADS-B (KTLH)
05:39PM 29.9175 -83.6642 159° South 470 541 35,000  Level Jacksonville Center
05:40PM 29.7947 -83.6153 161° South 470 541 35,000  Level Jacksonville Center
05:41PM 29.6719 -83.5594 158° South 470 541 35,000  Level Jacksonville Center
05:42PM 29.5511 -83.5061 159° South 470 541 35,000  Level Jacksonville Center
05:43PM 29.4261 -83.4528 160° South 470 541 35,000  Level Jacksonville Center
05:44PM 29.3053 -83.3997 159° South 470 541 35,000  Level Jacksonville Center
05:49PM 28.6301 -83.1074 159° South 467 537 35,000  Level FlightAware ADS-B (KMCO)
05:51PM 28.4476 -83.0298 159° South 461 531 35,000  Level FlightAware ADS-B (KMCO)
05:53PM 28.1883 -82.9198 160° South 462 532 35,000  Level FlightAware ADS-B (KMCO)
05:54PM 28.0274 -82.8518 160° South 463 533 35,000  Level FlightAware ADS-B (KMCO)
05:57PM 27.7341 -82.7286 159° South 465 535 35,000  Level FlightAware ADS-B (KEYW)
05:57PM 27.6769 -82.7046 160° South 463 533 35,000  Level FlightAware ADS-B (KMCO)
05:58PM 27.5892 -82.6679 159° South 461 531 35,000  Level FlightAware ADS-B (KEYW)
05:58PM 27.5930 -82.6695 160° South 461 531 35,000  Level FlightAware ADS-B (KMCO)
05:59PM 27.5121 -82.6357 159° South 459 528 35,000  Level FlightAware ADS-B (KEYW)
05:59PM 27.4388 -82.6052 159° South 458 527 35,000  Level FlightAware ADS-B (KEYW)
06:00PM 27.3844 -82.5825 160° South 459 528 35,000  Level FlightAware ADS-B (KMCO)
06:00PM 27.3648 -82.5743 159° South 457 526 35,000  Level FlightAware ADS-B (KEYW)
06:00PM 27.3134 -82.5530 160° South 459 528 35,000  Level FlightAware ADS-B (KMCO)
06:01PM 27.2581 -82.5300 159° South 458 527 35,000  Level FlightAware ADS-B (KEYW)
06:02PM 27.1734 -82.4948 159° South 460 529 35,000  Level FlightAware ADS-B (KEYW)
06:02PM 27.1674 -82.4924 159° South 460 529 35,000  Level FlightAware ADS-B (KEYW)
06:03PM 26.9888 -82.4184 159° South 461 531 35,000  Level FlightAware ADS-B (KEYW)
06:04PM 26.9347 -82.3961 159° South 461 531 35,000 -720 Level FlightAware ADS-B (KEYW)
06:04PM 26.8721 -82.3710 162° South 467 537 34,300 -1,200 Descending FlightAware ADS-B (KMCO)
06:04PM 26.8496 -82.3658 177° South 464 534 34,000 -480 Descending FlightAware ADS-B (KMCO)
06:05PM 26.7822 -82.3665 184° South 458 527 34,000  Level FlightAware ADS-B (KEYW)
06:05PM 26.7441 -82.3686 183° South 460 529 34,000  Level FlightAware ADS-B (KMCO)
06:05PM 26.7192 -82.3699 183° South 459 528 34,000  Level FlightAware ADS-B (KEYW)
06:06PM 26.6685 -82.3725 183° South 456 525 34,000  Level FlightAware ADS-B (KMCO)
06:06PM 26.6425 -82.3740 183° South 452 520 34,000  Level FlightAware ADS-B (KEYW)
06:07PM 26.5475 -82.3792 183° South 455 524 34,000  Level FlightAware ADS-B (KEYW)
06:07PM 26.4536 -82.3845 183° South 453 521 34,000  Level FlightAware ADS-B (KEYW)
06:08PM 26.3577 -82.3898 183° South 454 522 34,000  Level FlightAware ADS-B (KEYW)
06:08PM 26.3626 -82.3895 183° South 455 524 34,000  Level FlightAware ADS-B (KMCO)
06:09PM 26.2709 -82.3947 183° South 457 526 34,000  Level FlightAware ADS-B (KMCO)
06:09PM 26.2623 -82.3951 183° South 456 525 34,000  Level FlightAware ADS-B (KEYW)
06:10PM 26.1814 -82.3997 183° South 459 528 34,000  Level FlightAware ADS-B (KMCO)
06:10PM 26.1665 -82.4005 183° South 458 527 34,000  Level FlightAware ADS-B (KEYW)
06:10PM 26.1042 -82.4039 183° South 456 525 34,000  Level FlightAware ADS-B (KEYW)
06:10PM 26.1023 -82.4040 183° South 457 526 34,000  Level FlightAware ADS-B (KMCO)
06:11PM 26.0388 -82.4076 183° South 455 524 34,000  Level FlightAware ADS-B (KEYW)
06:11PM 26.0060 -82.4094 183° South 455 524 34,000  Level FlightAware ADS-B (KMCO)
06:11PM 25.9462 -82.4127 183° South 455 524 34,000  Level FlightAware ADS-B (KEYW)
06:12PM 25.8485 -82.4181 183° South 456 525 34,000  Level FlightAware ADS-B (KEYW)
06:13PM 25.7997 -82.4208 183° South 459 528 34,000  Level FlightAware ADS-B (KMCO)
06:13PM 25.7531 -82.4234 183° South 457 526 34,000  Level FlightAware ADS-B (KEYW)
06:14PM 25.6579 -82.4287 183° South 456 525 34,000  Level FlightAware ADS-B (KEYW)
06:14PM 25.6686 -82.4281 183° South 457 526 34,000  Level FlightAware ADS-B (KMCO)
06:14PM 25.5657 -82.4338 183° South 453 521 34,000  Level FlightAware ADS-B (KEYW)
06:15PM 25.4676 -82.4391 183° South 454 522 34,000  Level FlightAware ADS-B (KEYW)
06:16PM 25.3729 -82.4443 183° South 454 522 34,000  Level FlightAware ADS-B (KEYW)
06:16PM 25.3091 -82.4478 183° South 453 521 34,000  Level FlightAware ADS-B (KEYW)
06:17PM 25.2138 -82.4530 183° South 454 522 34,000  Level FlightAware ADS-B (KEYW)
06:18PM 25.1199 -82.4581 183° South 454 522 34,000  Level FlightAware ADS-B (KEYW)
06:19PM 25.0250 -82.4633 183° South 455 524 34,000  Level FlightAware ADS-B (KEYW)
06:19PM 24.9312 -82.4684 183° South 454 522 34,000 -180 Level FlightAware ADS-B (KEYW)
06:20PM 24.8345 -82.4737 183° South 452 520 33,800 -720 Descending FlightAware ADS-B (KEYW)
06:21PM 24.7407 -82.4788 183° South 447 514 33,000 -1,440 Descending FlightAware ADS-B (KEYW)
06:21PM 24.6782 -82.4822 183° South 443 510 32,000 -1,800 Descending FlightAware ADS-B (KEYW)
06:22PM 24.6173 -82.4855 183° South 439 505 31,200 -1,680 Descending FlightAware ADS-B (KEYW)
06:23PM 24.5269 -82.4904 183° South 431 496 29,900 -1,800 Descending FlightAware ADS-B (KEYW)
06:23PM 24.4365 -82.4953 183° South 423 487 28,500 -1,740 Descending FlightAware ADS-B (KEYW)
06:24PM 24.3488 -82.5000 183° South 415 478 27,300 -1,680 Descending FlightAware ADS-B (KEYW)
06:25PM 24.2621 -82.5047 183° South 409 471 26,000 -1,740 Descending FlightAware ADS-B (KEYW)
06:26PM 24.1767 -82.5093 183° South 417 480 24,700 -2,160 Descending FlightAware ADS-B (KEYW)
06:26PM 24.0887 -82.5140 183° South 423 487 22,800 -2,040 Descending FlightAware ADS-B (KEYW)
06:27PM 24.0043 -82.5185 183° South 409 471 21,700 -1,680 Descending FlightAware ADS-B (KEYW)
06:28PM 23.9176 -82.5261 187° South 401 461 20,300 -1,860 Descending FlightAware ADS-B (KEYW)
06:29PM 23.8348 -82.5352 186° South 392 451 18,900 -2,040 Descending FlightAware ADS-B (KEYW)
06:29PM 23.7528 -82.5435 186° South 392 451 17,300 -1,920 Descending FlightAware ADS-B (KEYW)
06:30PM 23.6725 -82.5516 186° South 378 435 16,100 -1,740 Descending FlightAware ADS-B (KEYW)
06:31PM 23.5946 -82.5594 186° South 374 430 14,700 -1,440 Descending FlightAware ADS-B (KEYW)
06:32PM 23.5177 -82.5671 186° South 360 414 14,000 -540 Descending FlightAware ADS-B (KEYW)
06:32PM 23.4471 -82.5742 186° South 323 372 13,900 -1,020 Descending FlightAware ADS-B (KEYW)
06:33PM 23.3810 -82.5900 198° South 330 380 12,500 -2,340 Descending FlightAware ADS-B (KEYW)
06:34PM 23.3136 -82.6128 198° South 339 390 10,400 -2,100 Descending FlightAware ADS-B (KEYW)
06:35PM 23.2513 -82.6344 198° South 301 346 9,400 -1,680 Descending FlightAware ADS-B (KEYW)
06:35PM 23.2321 -82.6407 196° South 298 343 8,800 -2,280 Descending FlightAware ADS-B (KEYW)
06:35PM 23.1900 -82.6465 191° South 293 337 7,700 -2,160 Descending FlightAware ADS-B (KEYW)
06:36PM 23.1325 -82.6633 196° South 287 330 6,100 -2,160 Descending FlightAware ADS-B (KEYW)
06:39PM 22.9891 -82.4091 121° Southeast  Level Estimated
06:40PM 22.9891 -82.4091 180° South  Level Estimated
06:41PM 22.9891 -82.4091 180° South  Level Estimated
06:42PM 22.9891 -82.4091 180° South  Level Estimated
06:43PM 22.9891 -82.4091 180° South  Level Estimated
06:44PM 22.9891 -82.4091 180° South  Level Estimated
06:45PM 22.9891 -82.4091 180° South  Level Estimated
06:46PM 22.9891 -82.4091 180° South  Level Estimated
06:47PM 22.9891 -82.4091 180° South  Level Estimated
06:48PM 22.9891 -82.4091 180° South  Level Estimated
06:49PM 22.9891 -82.4091 180° South  Level Estimated
06:50PM 22.9891 -82.4091 180° South  Level Estimated
06:51PM 22.9891 -82.4091 180° South  Level Estimated
06:52PM 22.9891 -82.4091 180° South  Level Estimated
06:53PM 22.9891 -82.4091 180° South  Level Estimated
06:54PM 22.9891 -82.4091 180° South  Level Estimated
06:55PM 22.9891 -82.4091 180° South  Level Estimated
06:56PM 22.9891 -82.4091 180° South  Level Estimated
06:57PM 22.9891 -82.4091 180° South  Level Estimated
06:58PM 22.9891 -82.4091 180° South  Level Estimated
06:59PM 22.9891 -82.4091 180° South  Level Estimated